Time;durP1;ratioP1;P1;durP2;ratioP2;P2;SDS_P1;SDS_P2;PMS_P1;PMS_P2;Temp;Humidity;BMP_temperature;BMP_pressure;BME280_temperature;BME280_humidity;BME280_pressure;Samples;Min_cycle;Max_cycle;Signal;HPM_P1;HPM_P2
2022/11/12 00:00:24;;;;;;;39.15;23.27;;;;;;;;;;5015195;28;20136;-76
2022/11/12 00:03:10;;;;;;;41.67;24.40;;;;;;;;;;5016532;28;20044;-77
2022/11/12 00:05:54;;;;;;;41.33;24.65;;;;;;;;;;5016492;28;20087;-77
2022/11/12 00:08:38;;;;;;;41.67;25.00;;;;;;;;;;5015610;28;20049;-77
2022/11/12 00:11:22;;;;;;;42.53;25.02;;;;;;;;;;5016232;28;20041;-77
2022/11/12 00:16:59;;;;;;;31.77;20.02;;;;;;;;;;5003760;23;20054;-78
2022/11/12 00:19:43;;;;;;;33.63;20.75;;;;;;;;;;4996373;28;20055;-77
2022/11/12 00:22:29;;;;;;;35.25;21.60;;;;;;;;;;4996670;28;20080;-78
2022/11/12 00:25:13;;;;;;;30.55;19.38;;;;;;;;;;4996406;28;20069;-77
2022/11/12 00:28:01;;;;;;;36.95;21.17;;;;;;;;;;4996777;28;20040;-78
2022/11/12 00:30:45;;;;;;;32.40;20.90;;;;;;;;;;4996149;28;20045;-78
2022/11/12 00:33:29;;;;;;;34.17;20.17;;;;;;;;;;4996395;28;20041;-78
2022/11/12 00:36:14;;;;;;;29.40;20.20;;;;;;;;;;4996651;28;20101;-77
2022/11/12 00:38:57;;;;;;;28.63;19.38;;;;;;;;;;4996257;28;20398;-77
2022/11/12 00:41:42;;;;;;;31.67;19.73;;;;;;;;;;4996151;28;20041;-77
2022/11/12 00:44:26;;;;;;;27.00;18.55;;;;;;;;;;4996477;28;20103;-78
2022/11/12 00:47:10;;;;;;;29.95;19.92;;;;;;;;;;4996286;28;20101;-78
2022/11/12 00:49:54;;;;;;;33.70;21.50;;;;;;;;;;4995910;28;20093;-77
2022/11/12 00:52:38;;;;;;;36.63;22.80;;;;;;;;;;4996240;28;20100;-77
2022/11/12 00:55:22;;;;;;;35.78;22.90;;;;;;;;;;4995987;28;20089;-76
2022/11/12 00:58:06;;;;;;;37.67;23.73;;;;;;;;;;4994910;28;20044;-76
2022/11/12 01:00:50;;;;;;;38.72;23.25;;;;;;;;;;4994824;28;20176;-76
2022/11/12 01:03:34;;;;;;;39.58;23.73;;;;;;;;;;4994745;28;20398;-76
2022/11/12 01:06:19;;;;;;;38.00;23.40;;;;;;;;;;4995621;28;20041;-76
2022/11/12 01:09:04;;;;;;;36.95;23.40;;;;;;;;;;4995851;28;20061;-75
2022/11/12 01:11:48;;;;;;;34.22;22.23;;;;;;;;;;4994927;28;20517;-75
2022/11/12 01:14:32;;;;;;;29.23;20.58;;;;;;;;;;4995413;28;20399;-76
2022/11/12 01:17:16;;;;;;;27.95;19.75;;;;;;;;;;4995521;28;20394;-76
2022/11/12 01:20:00;;;;;;;35.05;21.75;;;;;;;;;;4995454;28;20538;-76
2022/11/12 01:22:44;;;;;;;33.08;21.25;;;;;;;;;;4995478;28;20089;-76
2022/11/12 01:25:28;;;;;;;30.67;21.67;;;;;;;;;;4994410;28;20136;-76
2022/11/12 01:28:12;;;;;;;30.30;20.70;;;;;;;;;;4995330;28;20077;-76
2022/11/12 01:30:56;;;;;;;32.75;20.27;;;;;;;;;;4998092;28;20115;-76
2022/11/12 01:33:41;;;;;;;30.50;19.80;;;;;;;;;;4998920;28;20041;-75
2022/11/12 01:36:26;;;;;;;30.27;19.60;;;;;;;;;;4994901;28;20037;-75
2022/11/12 01:39:09;;;;;;;34.80;20.42;;;;;;;;;;4995207;28;20084;-76
2022/11/12 01:41:54;;;;;;;34.00;20.65;;;;;;;;;;4994881;28;20133;-76
2022/11/12 01:44:40;;;;;;;34.67;20.33;;;;;;;;;;4994527;28;20085;-76
2022/11/12 01:47:31;;;;;;;30.42;19.80;;;;;;;;;;4994816;28;20060;-76
2022/11/12 01:50:17;;;;;;;33.38;20.50;;;;;;;;;;4993820;28;20048;-74
2022/11/12 01:53:04;;;;;;;33.42;20.20;;;;;;;;;;4994355;28;20096;-76
2022/11/12 01:55:48;;;;;;;34.00;20.17;;;;;;;;;;4970552;23;20057;-76
2022/11/12 01:58:33;;;;;;;32.95;20.55;;;;;;;;;;5014756;28;20033;-77
2022/11/12 02:01:17;;;;;;;37.28;20.60;;;;;;;;;;5014661;28;20041;-77
2022/11/12 02:04:01;;;;;;;35.00;21.17;;;;;;;;;;5015191;28;20084;-77
2022/11/12 02:06:45;;;;;;;37.55;21.88;;;;;;;;;;5015945;28;20049;-77
2022/11/12 02:09:32;;;;;;;35.60;21.45;;;;;;;;;;5014545;28;20536;-76
2022/11/12 02:15:19;;;;;;;33.78;21.23;;;;;;;;;;5014418;28;20029;-76
2022/11/12 02:18:04;;;;;;;37.47;22.98;;;;;;;;;;5014356;28;20382;-76
2022/11/12 02:21:08;;;;;;;37.15;23.20;;;;;;;;;;5014551;28;20436;-79
2022/11/12 02:24:05;;;;;;;36.20;21.90;;;;;;;;;;5016321;28;20493;-77
2022/11/12 02:26:51;;;;;;;32.45;19.98;;;;;;;;;;5017761;28;20493;-77
2022/11/12 02:29:35;;;;;;;34.15;20.88;;;;;;;;;;5018098;28;20044;-76
2022/11/12 02:32:19;;;;;;;35.40;20.63;;;;;;;;;;5018215;28;20041;-76
2022/11/12 02:35:03;;;;;;;35.35;20.92;;;;;;;;;;5018283;28;20394;-76
2022/11/12 02:37:47;;;;;;;32.67;20.15;;;;;;;;;;5018088;28;20536;-76
2022/11/12 02:40:31;;;;;;;34.05;21.63;;;;;;;;;;5017053;28;20099;-76
2022/11/12 02:43:14;;;;;;;41.75;21.30;;;;;;;;;;5018063;28;20509;-76
2022/11/12 02:45:58;;;;;;;34.33;21.27;;;;;;;;;;5017786;28;20052;-77
2022/11/12 02:48:43;;;;;;;41.22;23.17;;;;;;;;;;5018300;28;20103;-76
2022/11/12 02:51:26;;;;;;;38.25;22.83;;;;;;;;;;5018095;28;20504;-76
2022/11/12 02:54:10;;;;;;;43.17;23.73;;;;;;;;;;5018039;28;20041;-76
2022/11/12 02:56:54;;;;;;;42.08;22.45;;;;;;;;;;5017038;28;20052;-76
2022/11/12 02:59:38;;;;;;;35.40;22.33;;;;;;;;;;5016727;28;20092;-76
2022/11/12 03:02:22;;;;;;;31.35;19.23;;;;;;;;;;5017682;28;20048;-77
2022/11/12 03:05:12;;;;;;;28.20;18.75;;;;;;;;;;5016340;28;20069;-77
2022/11/12 03:08:00;;;;;;;32.45;20.50;;;;;;;;;;5016602;28;20048;-76
2022/11/12 03:10:44;;;;;;;33.25;21.00;;;;;;;;;;5015753;28;20177;-77
2022/11/12 03:13:28;;;;;;;30.40;19.30;;;;;;;;;;5016018;28;20045;-75
2022/11/12 03:16:15;;;;;;;32.47;20.45;;;;;;;;;;5017467;28;20164;-77
2022/11/12 03:18:59;;;;;;;30.13;20.25;;;;;;;;;;5018152;28;20096;-77
2022/11/12 03:21:43;;;;;;;33.38;19.98;;;;;;;;;;5017534;28;20044;-77
2022/11/12 03:24:27;;;;;;;30.23;19.45;;;;;;;;;;5017556;28;20512;-78
2022/11/12 03:27:13;;;;;;;31.70;19.92;;;;;;;;;;5017238;28;20044;-81
2022/11/12 03:29:57;;;;;;;28.85;18.95;;;;;;;;;;5017298;28;20500;-81
2022/11/12 03:32:41;;;;;;;29.35;18.50;;;;;;;;;;5017694;28;20056;-77
2022/11/12 03:35:25;;;;;;;30.83;19.90;;;;;;;;;;5016944;28;20168;-77
2022/11/12 03:38:09;;;;;;;28.98;18.75;;;;;;;;;;5017020;28;20068;-77
2022/11/12 03:40:53;;;;;;;31.80;18.23;;;;;;;;;;5016981;28;20044;-76
2022/11/12 03:43:40;;;;;;;31.58;19.63;;;;;;;;;;5017766;28;20048;-76
2022/11/12 03:46:24;;;;;;;31.63;20.60;;;;;;;;;;5017679;28;20544;-77
2022/11/12 03:49:11;;;;;;;28.25;18.83;;;;;;;;;;5015520;28;20077;-76
2022/11/12 03:51:54;;;;;;;32.78;19.48;;;;;;;;;;5017129;28;20163;-77
2022/11/12 03:54:38;;;;;;;33.30;19.92;;;;;;;;;;5016859;28;20044;-77
2022/11/12 03:57:22;;;;;;;31.15;19.98;;;;;;;;;;5016670;28;20064;-77
2022/11/12 04:00:13;;;;;;;31.75;19.88;;;;;;;;;;5016950;28;20040;-77
2022/11/12 04:02:57;;;;;;;31.30;19.63;;;;;;;;;;5016002;28;20540;-77
2022/11/12 04:08:46;;;;;;;29.08;18.55;;;;;;;;;;5016416;28;20176;-77
2022/11/12 04:11:30;;;;;;;26.35;18.27;;;;;;;;;;5016186;28;20037;-77
2022/11/12 04:14:13;;;;;;;26.20;16.88;;;;;;;;;;5016497;28;20033;-76
2022/11/12 04:23:08;;;;;;;24.83;15.30;;;;;;;;;;5019519;28;20072;-75
2022/11/12 04:31:58;;;;;;;23.08;16.42;;;;;;;;;;5017812;28;20080;-75
2022/11/12 04:34:42;;;;;;;23.17;15.30;;;;;;;;;;5015140;28;20064;-75
2022/11/12 04:37:27;;;;;;;23.52;16.23;;;;;;;;;;5015785;28;20044;-75
2022/11/12 04:46:21;;;;;;;22.98;16.33;;;;;;;;;;5014776;28;20397;-75
2022/11/12 04:49:05;;;;;;;29.17;17.73;;;;;;;;;;5015712;28;20045;-73
2022/11/12 04:52:05;;;;;;;23.17;16.70;;;;;;;;;;5015950;28;20040;-73
2022/11/12 04:54:49;;;;;;;24.15;16.27;;;;;;;;;;5015710;28;20394;-74
2022/11/12 04:57:33;;;;;;;26.17;16.42;;;;;;;;;;5015224;28;20524;-74
2022/11/12 05:00:17;;;;;;;26.35;16.92;;;;;;;;;;5015208;28;20096;-74
2022/11/12 05:03:02;;;;;;;17.95;13.38;;;;;;;;;;5016107;28;20544;-75
2022/11/12 05:05:46;;;;;;;17.40;12.82;;;;;;;;;;5014022;28;20092;-75
2022/11/12 05:08:30;;;;;;;19.40;13.07;;;;;;;;;;5015630;28;20083;-76
2022/11/12 05:11:14;;;;;;;17.35;13.35;;;;;;;;;;5015469;28;20065;-75
2022/11/12 05:13:58;;;;;;;20.98;13.57;;;;;;;;;;5015533;28;20048;-76
2022/11/12 05:16:42;;;;;;;17.63;12.52;;;;;;;;;;5014898;28;20458;-77
2022/11/12 05:19:26;;;;;;;19.45;12.93;;;;;;;;;;5014438;28;20114;-74
2022/11/12 05:22:10;;;;;;;17.45;12.25;;;;;;;;;;5015351;28;20374;-74
2022/11/12 05:24:54;;;;;;;17.60;12.23;;;;;;;;;;5014986;28;20088;-74
2022/11/12 05:27:40;;;;;;;18.63;12.95;;;;;;;;;;5015255;28;20041;-75
2022/11/12 05:30:24;;;;;;;18.83;13.05;;;;;;;;;;5014920;28;20045;-75
2022/11/12 05:33:10;;;;;;;20.17;13.85;;;;;;;;;;5015196;28;20141;-74
2022/11/12 05:35:57;;;;;;;18.13;12.85;;;;;;;;;;5013530;28;20088;-74
2022/11/12 05:38:41;;;;;;;18.73;13.57;;;;;;;;;;5015082;28;20040;-74
2022/11/12 05:41:25;;;;;;;24.20;16.63;;;;;;;;;;5014550;28;20045;-75
2022/11/12 05:44:09;;;;;;;24.88;18.25;;;;;;;;;;5014806;28;20044;-75
2022/11/12 05:46:54;;;;;;;24.60;17.42;;;;;;;;;;5014689;28;20080;-76
2022/11/12 05:49:38;;;;;;;18.80;14.85;;;;;;;;;;5013226;28;20045;-75
2022/11/12 05:52:22;;;;;;;17.27;13.13;;;;;;;;;;5014411;28;20045;-75
2022/11/12 05:55:06;;;;;;;16.90;12.23;;;;;;;;;;5014685;28;20104;-74
2022/11/12 05:57:51;;;;;;;18.13;13.45;;;;;;;;;;5013212;28;20041;-74
2022/11/12 06:00:38;;;;;;;20.90;15.07;;;;;;;;;;5014402;28;20049;-74
2022/11/12 06:03:22;;;;;;;23.67;17.73;;;;;;;;;;5014494;28;20036;-74
2022/11/12 06:06:06;;;;;;;38.22;27.23;;;;;;;;;;5014043;28;20440;-75
2022/11/12 06:08:50;;;;;;;47.80;31.80;;;;;;;;;;5014014;28;20165;-75
2022/11/12 06:11:34;;;;;;;24.58;17.60;;;;;;;;;;5013985;28;20033;-75
2022/11/12 06:14:18;;;;;;;22.23;15.85;;;;;;;;;;5014310;28;20036;-75
2022/11/12 06:17:02;;;;;;;26.08;16.80;;;;;;;;;;5014050;28;20045;-75
2022/11/12 06:19:46;;;;;;;25.88;17.65;;;;;;;;;;5014213;28;20067;-76
2022/11/12 06:22:30;;;;;;;26.23;18.33;;;;;;;;;;5014181;28;20080;-77
2022/11/12 06:25:14;;;;;;;23.88;17.88;;;;;;;;;;5014234;28;20087;-77
2022/11/12 06:27:59;;;;;;;24.38;17.70;;;;;;;;;;5014166;28;20390;-77
2022/11/12 06:30:43;;;;;;;23.60;17.83;;;;;;;;;;5013748;28;20037;-77
2022/11/12 06:33:27;;;;;;;20.70;14.80;;;;;;;;;;5013899;28;20040;-77
2022/11/12 06:36:12;;;;;;;21.77;15.25;;;;;;;;;;5012914;28;20548;-77
2022/11/12 06:38:56;;;;;;;24.52;15.50;;;;;;;;;;5013664;28;20107;-77
2022/11/12 06:41:40;;;;;;;22.10;15.63;;;;;;;;;;5014113;28;20125;-76
2022/11/12 06:44:24;;;;;;;22.95;16.27;;;;;;;;;;5013579;28;20045;-77
2022/11/12 06:47:09;;;;;;;21.15;15.40;;;;;;;;;;5012504;28;20092;-77
2022/11/12 06:49:53;;;;;;;27.02;17.95;;;;;;;;;;5012611;28;20128;-77
2022/11/12 06:52:37;;;;;;;29.13;18.10;;;;;;;;;;5013696;28;20053;-77
2022/11/12 06:55:21;;;;;;;28.58;18.42;;;;;;;;;;5013408;28;20049;-77
2022/11/12 06:58:05;;;;;;;32.78;20.60;;;;;;;;;;5013455;28;20037;-77
2022/11/12 07:00:50;;;;;;;28.40;20.00;;;;;;;;;;5012546;28;20168;-80
2022/11/12 07:03:33;;;;;;;28.48;18.77;;;;;;;;;;5013739;28;20041;-78
2022/11/12 07:06:19;;;;;;;31.23;20.73;;;;;;;;;;5013942;28;20052;-76
2022/11/12 07:09:03;;;;;;;90.18;47.42;;;;;;;;;;5014507;28;20044;-79
2022/11/12 07:11:47;;;;;;;119.07;62.40;;;;;;;;;;5016910;28;20076;-77
2022/11/12 07:14:31;;;;;;;147.85;74.45;;;;;;;;;;5014999;28;20114;-78
2022/11/12 07:17:15;;;;;;;162.48;82.93;;;;;;;;;;5016046;28;20160;-78
2022/11/12 07:20:00;;;;;;;163.27;83.10;;;;;;;;;;5015943;28;20057;-76
2022/11/12 07:22:44;;;;;;;157.82;80.38;;;;;;;;;;5015963;28;20041;-76
2022/11/12 07:25:28;;;;;;;88.35;48.22;;;;;;;;;;5016073;28;20088;-76
2022/11/12 07:28:12;;;;;;;47.55;27.80;;;;;;;;;;5019064;28;20104;-77
2022/11/12 07:30:56;;;;;;;31.30;20.45;;;;;;;;;;5018242;28;20073;-77
2022/11/12 07:33:41;;;;;;;25.70;17.38;;;;;;;;;;5016456;28;20095;-77
2022/11/12 07:36:25;;;;;;;24.42;17.25;;;;;;;;;;5015014;28;20033;-77
2022/11/12 07:39:09;;;;;;;21.30;16.23;;;;;;;;;;5015830;28;20745;-77
2022/11/12 07:41:53;;;;;;;20.08;15.82;;;;;;;;;;5015864;28;20133;-74
2022/11/12 07:44:37;;;;;;;22.73;16.50;;;;;;;;;;5015909;28;20048;-77
2022/11/12 07:47:21;;;;;;;20.70;16.40;;;;;;;;;;5014636;28;20037;-76
2022/11/12 07:50:05;;;;;;;22.95;16.48;;;;;;;;;;5014392;28;20056;-76
2022/11/12 07:52:49;;;;;;;21.88;16.40;;;;;;;;;;5015485;28;20032;-78
2022/11/12 07:55:34;;;;;;;25.02;18.58;;;;;;;;;;5015925;28;20103;-78
2022/11/12 07:58:17;;;;;;;27.48;18.50;;;;;;;;;;5016290;28;20469;-79
2022/11/12 08:01:20;;;;;;;26.05;17.70;;;;;;;;;;5016540;28;20413;-79
2022/11/12 08:04:08;;;;;;;24.13;17.95;;;;;;;;;;5015427;28;20092;-78
2022/11/12 08:06:52;;;;;;;26.38;18.70;;;;;;;;;;5016438;28;20083;-79
2022/11/12 08:09:36;;;;;;;28.38;18.95;;;;;;;;;;5015781;28;20068;-78
2022/11/12 08:12:20;;;;;;;26.92;19.48;;;;;;;;;;5016502;28;20101;-78
2022/11/12 08:15:04;;;;;;;28.25;19.20;;;;;;;;;;5015397;28;20182;-77
2022/11/12 08:17:48;;;;;;;27.25;19.35;;;;;;;;;;5015320;28;20044;-79
2022/11/12 08:20:32;;;;;;;28.55;20.02;;;;;;;;;;5013267;28;20187;-78
2022/11/12 08:23:16;;;;;;;29.50;19.73;;;;;;;;;;5015698;28;20045;-78
2022/11/12 08:26:01;;;;;;;26.50;18.92;;;;;;;;;;5015939;28;20477;-78
2022/11/12 08:28:46;;;;;;;31.35;20.38;;;;;;;;;;5015329;28;20132;-78
2022/11/12 08:31:30;;;;;;;34.33;20.77;;;;;;;;;;5016080;28;20060;-78
2022/11/12 08:34:14;;;;;;;32.70;21.55;;;;;;;;;;5017131;28;20508;-78
2022/11/12 08:36:59;;;;;;;29.35;20.30;;;;;;;;;;5015581;28;20064;-78
2022/11/12 08:39:43;;;;;;;37.80;22.00;;;;;;;;;;5015484;28;20123;-78
2022/11/12 08:42:27;;;;;;;32.67;21.83;;;;;;;;;;5015315;28;20053;-79
2022/11/12 08:45:11;;;;;;;30.63;21.60;;;;;;;;;;5015576;28;20095;-79
2022/11/12 08:47:59;;;;;;;30.73;21.83;;;;;;;;;;5013969;28;20036;-78
2022/11/12 08:50:43;;;;;;;29.23;19.58;;;;;;;;;;5014158;28;20041;-77
2022/11/12 08:53:27;;;;;;;26.08;17.88;;;;;;;;;;5015106;28;20374;-75
2022/11/12 08:56:11;;;;;;;28.73;20.60;;;;;;;;;;5014462;28;20405;-76
2022/11/12 08:58:56;;;;;;;29.17;20.67;;;;;;;;;;5014139;28;20041;-74
2022/11/12 09:01:41;;;;;;;33.83;21.77;;;;;;;;;;5014426;28;20041;-74
2022/11/12 09:04:25;;;;;;;32.97;21.85;;;;;;;;;;5013942;28;20053;-74
2022/11/12 09:07:09;;;;;;;27.77;18.85;;;;;;;;;;5013657;28;20099;-73
2022/11/12 09:09:53;;;;;;;26.08;18.13;;;;;;;;;;5012959;28;20560;-74
2022/11/12 09:12:37;;;;;;;25.25;18.10;;;;;;;;;;5012328;28;20033;-76
2022/11/12 09:15:22;;;;;;;25.38;17.85;;;;;;;;;;5012355;28;20120;-76
2022/11/12 09:18:09;;;;;;;25.50;17.85;;;;;;;;;;5013376;28;20080;-76
2022/11/12 09:20:57;;;;;;;24.80;17.00;;;;;;;;;;5012826;28;20048;-76
2022/11/12 09:23:41;;;;;;;26.83;18.17;;;;;;;;;;5013857;28;20041;-76
2022/11/12 09:26:25;;;;;;;24.92;17.45;;;;;;;;;;5013730;28;20041;-76
2022/11/12 09:29:10;;;;;;;24.55;16.73;;;;;;;;;;5013675;28;20049;-76
2022/11/12 09:31:54;;;;;;;24.80;16.75;;;;;;;;;;5012421;28;20574;-75
2022/11/12 09:34:37;;;;;;;24.40;17.05;;;;;;;;;;5013328;28;20029;-74
2022/11/12 09:37:22;;;;;;;27.60;17.40;;;;;;;;;;5012909;28;20517;-74
2022/11/12 09:40:06;;;;;;;25.67;17.48;;;;;;;;;;5013647;28;20044;-75
2022/11/12 09:42:52;;;;;;;30.85;19.65;;;;;;;;;;5013437;28;20393;-74
2022/11/12 09:45:36;;;;;;;25.65;17.95;;;;;;;;;;5013270;28;20040;-74
2022/11/12 09:48:23;;;;;;;27.15;17.25;;;;;;;;;;5013339;28;20088;-74
2022/11/12 09:51:25;;;;;;;27.50;18.02;;;;;;;;;;5012838;28;20044;-74
2022/11/12 09:54:22;;;;;;;26.90;17.40;;;;;;;;;;5012315;28;20037;-74
2022/11/12 09:57:09;;;;;;;29.10;18.25;;;;;;;;;;5012905;28;20049;-74
2022/11/12 09:59:53;;;;;;;26.90;17.95;;;;;;;;;;5013157;28;20088;-74
2022/11/12 10:02:44;;;;;;;28.98;18.17;;;;;;;;;;5013228;28;20125;-74
2022/11/12 10:05:34;;;;;;;26.92;18.13;;;;;;;;;;5012638;28;20520;-74
2022/11/12 10:08:29;;;;;;;29.42;17.45;;;;;;;;;;5014130;28;20601;-75
2022/11/12 10:11:18;;;;;;;23.77;13.88;;;;;;;;;;5013111;28;20128;-74
2022/11/12 10:14:20;;;;;;;23.00;13.65;;;;;;;;;;5012925;28;20088;-75
2022/11/12 10:17:22;;;;;;;31.45;17.95;;;;;;;;;;5014186;28;20040;-75
2022/11/12 10:20:12;;;;;;;28.02;17.88;;;;;;;;;;5013577;28;20061;-74
2022/11/12 10:22:56;;;;;;;25.70;16.95;;;;;;;;;;5012684;28;20103;-74
2022/11/12 10:25:42;;;;;;;26.35;16.13;;;;;;;;;;5012757;28;20505;-74
2022/11/12 10:28:33;;;;;;;25.35;15.32;;;;;;;;;;5012452;28;20517;-75
2022/11/12 10:31:18;;;;;;;30.65;17.63;;;;;;;;;;5011795;28;20072;-75
2022/11/12 10:34:22;;;;;;;27.23;17.42;;;;;;;;;;5012264;28;20092;-74
2022/11/12 10:37:32;;;;;;;26.48;16.02;;;;;;;;;;5013588;28;20037;-74
2022/11/12 10:40:19;;;;;;;29.85;16.38;;;;;;;;;;4998091;28;20044;-75
2022/11/12 10:43:05;;;;;;;28.98;16.02;;;;;;;;;;5012156;28;20037;-75
2022/11/12 10:45:49;;;;;;;26.70;14.82;;;;;;;;;;5015499;28;20069;-75
2022/11/12 10:48:33;;;;;;;25.90;15.20;;;;;;;;;;5015710;28;20104;-75
2022/11/12 10:51:25;;;;;;;22.50;14.40;;;;;;;;;;5015292;28;20096;-75
2022/11/12 10:54:18;;;;;;;23.98;13.65;;;;;;;;;;5015875;28;20517;-75
2022/11/12 10:57:21;;;;;;;23.83;12.65;;;;;;;;;;5015749;28;20648;-75
2022/11/12 11:00:06;;;;;;;21.38;11.95;;;;;;;;;;5017492;28;20045;-75
2022/11/12 11:02:53;;;;;;;19.67;11.45;;;;;;;;;;5016727;28;20044;-76
2022/11/12 11:05:58;;;;;;;22.08;11.02;;;;;;;;;;5017940;28;20045;-77
2022/11/12 11:08:44;;;;;;;19.60;11.30;;;;;;;;;;5014530;28;20049;-77
2022/11/12 11:11:28;;;;;;;19.65;13.05;;;;;;;;;;5017808;28;20049;-77
2022/11/12 11:14:18;;;;;;;21.63;14.20;;;;;;;;;;5033650;23;20037;-76
2022/11/12 11:17:07;;;;;;;14.82;10.00;;;;;;;;;;4996282;28;20058;-77
2022/11/12 11:19:51;;;;;;;12.45;8.07;;;;;;;;;;4997802;28;20037;-77
2022/11/12 11:22:40;;;;;;;15.10;9.27;;;;;;;;;;4998032;28;20057;-77
2022/11/12 11:25:26;;;;;;;15.93;8.95;;;;;;;;;;4997731;28;20033;-77
2022/11/12 11:28:23;;;;;;;18.30;8.50;;;;;;;;;;4997664;28;20073;-77
2022/11/12 11:31:13;;;;;;;11.73;7.28;;;;;;;;;;4982965;28;20041;-77
2022/11/12 11:34:09;;;;;;;14.15;8.68;;;;;;;;;;4983240;28;20477;-77
2022/11/12 11:36:58;;;;;;;19.30;10.40;;;;;;;;;;4997261;28;20093;-77
2022/11/12 11:40:10;;;;;;;15.18;9.18;;;;;;;;;;4996934;28;20077;-77
2022/11/12 11:43:13;;;;;;;14.07;8.27;;;;;;;;;;4997105;28;20045;-77
2022/11/12 11:46:12;;;;;;;13.90;9.20;;;;;;;;;;4997116;28;20454;-77
2022/11/12 11:48:56;;;;;;;12.93;8.60;;;;;;;;;;4997352;28;20042;-77
2022/11/12 11:51:40;;;;;;;12.30;7.72;;;;;;;;;;4997311;28;20052;-77
2022/11/12 11:54:27;;;;;;;14.40;8.48;;;;;;;;;;4997207;28;20386;-77
2022/11/12 11:57:15;;;;;;;13.02;7.50;;;;;;;;;;4982115;28;20073;-77
2022/11/12 11:59:59;;;;;;;15.27;9.05;;;;;;;;;;4997422;28;20084;-77
2022/11/12 12:03:01;;;;;;;13.18;8.23;;;;;;;;;;4997027;28;20081;-77
2022/11/12 12:05:58;;;;;;;11.95;7.40;;;;;;;;;;4997018;28;20049;-77
2022/11/12 12:08:54;;;;;;;12.55;7.78;;;;;;;;;;4996974;28;20178;-77
2022/11/12 12:11:50;;;;;;;9.15;6.20;;;;;;;;;;4997239;28;20084;-77
2022/11/12 12:14:55;;;;;;;9.27;6.40;;;;;;;;;;4996730;28;20072;-77
2022/11/12 12:17:52;;;;;;;10.85;6.90;;;;;;;;;;4997035;28;20122;-77
2022/11/12 12:20:42;;;;;;;11.75;6.57;;;;;;;;;;4996758;28;20057;-77
2022/11/12 12:23:35;;;;;;;11.20;6.28;;;;;;;;;;4996733;28;20045;-77
2022/11/12 12:26:25;;;;;;;8.93;5.55;;;;;;;;;;4996955;28;20134;-77
2022/11/12 12:29:12;;;;;;;9.53;5.30;;;;;;;;;;4996586;28;20041;-75
2022/11/12 12:32:00;;;;;;;7.78;4.53;;;;;;;;;;5009384;28;20152;-75
2022/11/12 12:34:46;;;;;;;5.63;4.90;;;;;;;;;;4995674;28;20436;-75
2022/11/12 12:37:34;;;;;;;9.35;5.80;;;;;;;;;;4995122;28;20060;-75
2022/11/12 12:40:20;;;;;;;6.63;4.97;;;;;;;;;;5009441;28;20096;-75
2022/11/12 12:43:11;;;;;;;8.50;5.32;;;;;;;;;;4996268;28;20143;-75
2022/11/12 12:45:56;;;;;;;11.20;6.32;;;;;;;;;;4996199;28;20077;-75
2022/11/12 12:48:42;;;;;;;7.68;5.30;;;;;;;;;;4996166;28;20088;-75
2022/11/12 12:51:31;;;;;;;8.38;5.00;;;;;;;;;;4995799;28;20398;-75
2022/11/12 12:54:33;;;;;;;7.35;4.85;;;;;;;;;;4996053;28;20041;-78
2022/11/12 12:57:31;;;;;;;7.82;4.45;;;;;;;;;;4996136;28;20144;-77
2022/11/12 13:00:24;;;;;;;8.32;4.88;;;;;;;;;;5008871;28;20250;-77
2022/11/12 13:03:09;;;;;;;14.65;7.70;;;;;;;;;;4996001;28;20037;-78
2022/11/12 13:06:05;;;;;;;7.03;5.00;;;;;;;;;;4995887;28;20057;-77
2022/11/12 13:08:50;;;;;;;5.70;4.28;;;;;;;;;;4995946;28;20529;-77
2022/11/12 13:14:49;;;;;;;6.97;4.15;;;;;;;;;;4995595;28;20540;-78
2022/11/12 13:17:44;;;;;;;7.15;4.45;;;;;;;;;;4996091;28;20037;-77
2022/11/12 13:20:32;;;;;;;7.05;4.47;;;;;;;;;;4995524;28;20057;-78
2022/11/12 13:24:04;;;;;;;7.43;4.20;;;;;;;;;;4995804;28;20036;-78
2022/11/12 13:26:45;;;;;;;8.60;4.53;;;;;;;;;;4995726;28;20453;-77
2022/11/12 13:29:29;;;;;;;7.28;3.92;;;;;;;;;;5008504;28;20042;-78
2022/11/12 13:32:27;;;;;;;6.95;4.20;;;;;;;;;;4995851;28;20049;-78
2022/11/12 13:35:19;;;;;;;7.88;4.32;;;;;;;;;;4995579;28;20033;-78
2022/11/12 13:38:06;;;;;;;4.90;3.97;;;;;;;;;;4995453;28;20093;-77
2022/11/12 13:40:57;;;;;;;8.35;4.03;;;;;;;;;;4994724;28;20089;-77
2022/11/12 13:43:41;;;;;;;6.15;4.28;;;;;;;;;;4995625;28;20045;-77
2022/11/12 13:46:28;;;;;;;7.10;4.72;;;;;;;;;;4994331;28;20041;-77
2022/11/12 13:49:13;;;;;;;7.07;4.22;;;;;;;;;;4994419;28;20444;-77
2022/11/12 13:51:57;;;;;;;7.22;3.95;;;;;;;;;;4994177;28;20104;-76
2022/11/12 13:54:42;;;;;;;6.10;4.50;;;;;;;;;;5005020;28;20049;-77
2022/11/12 13:57:27;;;;;;;7.93;5.18;;;;;;;;;;4991266;28;20108;-76
2022/11/12 14:00:19;;;;;;;6.03;4.50;;;;;;;;;;4991190;28;20045;-76
2022/11/12 14:03:04;;;;;;;7.93;4.13;;;;;;;;;;4991625;28;20045;-78
2022/11/12 14:05:49;;;;;;;4.63;3.72;;;;;;;;;;4993127;28;20049;-78
2022/11/12 14:08:48;;;;;;;6.38;4.50;;;;;;;;;;4994823;28;20092;-78
2022/11/12 14:11:51;;;;;;;6.77;4.53;;;;;;;;;;4996732;28;20077;-78
2022/11/12 14:14:39;;;;;;;8.02;5.53;;;;;;;;;;4996449;28;20538;-78
2022/11/12 14:17:35;;;;;;;7.70;5.18;;;;;;;;;;4996153;28;20045;-78
2022/11/12 14:20:24;;;;;;;7.15;4.72;;;;;;;;;;4994612;28;20045;-78
2022/11/12 14:23:15;;;;;;;5.68;4.90;;;;;;;;;;5008123;28;20041;-78
2022/11/12 14:25:59;;;;;;;9.45;5.38;;;;;;;;;;4995502;28;20084;-78
2022/11/12 14:28:43;;;;;;;22.73;9.27;;;;;;;;;;4993166;28;20046;-78
2022/11/12 14:31:27;;;;;;;15.48;8.07;;;;;;;;;;4992823;28;20061;-78
2022/11/12 14:34:25;;;;;;;25.33;11.20;;;;;;;;;;4994072;28;20500;-78
2022/11/12 14:37:24;;;;;;;34.83;12.32;;;;;;;;;;4993286;28;20497;-78
2022/11/12 14:40:13;;;;;;;15.88;7.95;;;;;;;;;;4993804;28;20093;-78
2022/11/12 14:42:57;;;;;;;50.40;17.27;;;;;;;;;;4992571;28;20037;-78
2022/11/12 14:45:46;;;;;;;69.75;23.35;;;;;;;;;;4991785;28;20399;-77
2022/11/12 14:48:36;;;;;;;37.30;14.45;;;;;;;;;;4991123;28;20057;-77
2022/11/12 14:51:21;;;;;;;142.07;42.50;;;;;;;;;;5004513;28;20095;-77
2022/11/12 14:54:06;;;;;;;48.15;18.05;;;;;;;;;;4993196;28;20097;-75
2022/11/12 14:56:50;;;;;;;21.80;9.48;;;;;;;;;;4993094;28;20414;-75
2022/11/12 14:59:35;;;;;;;16.60;7.80;;;;;;;;;;4993323;28;20041;-75
2022/11/12 15:02:26;;;;;;;112.93;38.13;;;;;;;;;;4992961;28;20430;-75
2022/11/12 15:05:16;;;;;;;72.43;27.90;;;;;;;;;;4992396;28;20513;-75
2022/11/12 15:08:04;;;;;;;299.30;105.05;;;;;;;;;;4992675;28;20129;-75
2022/11/12 15:10:48;;;;;;;228.35;82.95;;;;;;;;;;4992523;28;20037;-75
2022/11/12 15:13:37;;;;;;;52.65;25.67;;;;;;;;;;4992712;28;20077;-76
2022/11/12 15:16:22;;;;;;;59.90;27.08;;;;;;;;;;4997101;28;20065;-79
2022/11/12 15:19:18;;;;;;;90.25;36.67;;;;;;;;;;4992199;28;20088;-79
2022/11/12 15:22:03;;;;;;;110.13;42.70;;;;;;;;;;4993714;28;20426;-78
2022/11/12 15:24:48;;;;;;;133.32;50.97;;;;;;;;;;5006288;28;20037;-78
2022/11/12 15:27:37;;;;;;;113.28;45.22;;;;;;;;;;4992737;28;20114;-77
2022/11/12 15:30:23;;;;;;;123.55;49.80;;;;;;;;;;5006528;28;20045;-73
2022/11/12 15:33:08;;;;;;;36.67;18.40;;;;;;;;;;4994961;28;20118;-74
2022/11/12 15:36:00;;;;;;;61.40;34.50;;;;;;;;;;4994927;28;20103;-75
2022/11/12 15:38:52;;;;;;;139.40;91.93;;;;;;;;;;4996336;28;20041;-75
2022/11/12 15:41:37;;;;;;;70.47;39.85;;;;;;;;;;4996089;28;20065;-75
2022/11/12 15:44:21;;;;;;;213.90;121.50;;;;;;;;;;4995643;28;20049;-75
2022/11/12 15:47:07;;;;;;;311.27;132.02;;;;;;;;;;4996095;28;20093;-75
2022/11/12 15:49:53;;;;;;;102.78;45.67;;;;;;;;;;4995738;28;20049;-78
2022/11/12 15:52:36;;;;;;;58.38;28.20;;;;;;;;;;5009318;28;20046;-78
2022/11/12 15:55:21;;;;;;;52.67;26.67;;;;;;;;;;4995322;28;20049;-77
2022/11/12 15:58:19;;;;;;;55.38;27.90;;;;;;;;;;4998309;28;20045;-78
2022/11/12 16:01:04;;;;;;;47.53;25.48;;;;;;;;;;5000030;28;20525;-79
2022/11/12 16:03:48;;;;;;;57.38;30.42;;;;;;;;;;4998831;28;20064;-78
2022/11/12 16:06:32;;;;;;;59.97;28.90;;;;;;;;;;4998505;28;20061;-79
2022/11/12 16:09:15;;;;;;;60.00;28.40;;;;;;;;;;4997375;28;20041;-79
2022/11/12 16:12:00;;;;;;;42.22;21.02;;;;;;;;;;4997419;28;20069;-78
2022/11/12 16:14:44;;;;;;;47.67;21.33;;;;;;;;;;4997202;28;20458;-78
2022/11/12 16:17:28;;;;;;;43.30;21.77;;;;;;;;;;4996192;28;20128;-78
2022/11/12 16:20:20;;;;;;;45.92;24.27;;;;;;;;;;4996594;28;20552;-79
2022/11/12 16:23:04;;;;;;;42.10;21.02;;;;;;;;;;4996119;28;20092;-79
2022/11/12 16:25:48;;;;;;;96.50;42.35;;;;;;;;;;4995889;28;20053;-79
2022/11/12 16:28:33;;;;;;;116.28;53.25;;;;;;;;;;4996279;28;20069;-78
2022/11/12 16:31:21;;;;;;;89.10;42.22;;;;;;;;;;5007748;28;20474;-79
2022/11/12 16:34:05;;;;;;;81.97;40.50;;;;;;;;;;4996623;28;20036;-78
2022/11/12 16:36:49;;;;;;;80.80;41.33;;;;;;;;;;4995585;28;20049;-79
2022/11/12 16:39:33;;;;;;;52.33;30.60;;;;;;;;;;4995858;28;20041;-78
2022/11/12 16:42:17;;;;;;;204.38;81.60;;;;;;;;;;4993814;28;20387;-79
2022/11/12 16:45:01;;;;;;;242.90;92.13;;;;;;;;;;4996085;28;20037;-78